sensor_id;sensor_type;location;lat;lon;timestamp;P1;durP1;ratioP1;P2;durP2;ratioP2
8913;SDS011;4492;48.736;9.092;2023-03-16T00:00:12;15.83;;;9.83;;
8913;SDS011;4492;48.736;9.092;2023-03-16T00:02:39;23.70;;;10.40;;
8913;SDS011;4492;48.736;9.092;2023-03-16T00:05:06;16.80;;;10.43;;
8913;SDS011;4492;48.736;9.092;2023-03-16T00:07:32;19.23;;;11.10;;
8913;SDS011;4492;48.736;9.092;2023-03-16T00:09:59;23.87;;;11.33;;
8913;SDS011;4492;48.736;9.092;2023-03-16T00:12:24;18.97;;;10.80;;
8913;SDS011;4492;48.736;9.092;2023-03-16T00:14:50;19.87;;;11.17;;
8913;SDS011;4492;48.736;9.092;2023-03-16T00:17:17;18.07;;;10.67;;
8913;SDS011;4492;48.736;9.092;2023-03-16T00:19:47;24.33;;;11.10;;
8913;SDS011;4492;48.736;9.092;2023-03-16T00:22:22;20.80;;;10.50;;
8913;SDS011;4492;48.736;9.092;2023-03-16T00:24:49;17.27;;;10.73;;
8913;SDS011;4492;48.736;9.092;2023-03-16T00:27:14;19.67;;;10.80;;
8913;SDS011;4492;48.736;9.092;2023-03-16T00:29:41;21.47;;;11.57;;
8913;SDS011;4492;48.736;9.092;2023-03-16T00:34:44;20.40;;;11.00;;
8913;SDS011;4492;48.736;9.092;2023-03-16T00:37:10;21.67;;;11.10;;
8913;SDS011;4492;48.736;9.092;2023-03-16T00:39:39;22.00;;;11.57;;
8913;SDS011;4492;48.736;9.092;2023-03-16T00:42:05;21.87;;;11.50;;
8913;SDS011;4492;48.736;9.092;2023-03-16T00:44:31;20.43;;;11.47;;
8913;SDS011;4492;48.736;9.092;2023-03-16T00:46:57;19.03;;;11.40;;
8913;SDS011;4492;48.736;9.092;2023-03-16T00:49:22;21.20;;;11.20;;
8913;SDS011;4492;48.736;9.092;2023-03-16T00:51:48;23.13;;;11.93;;
8913;SDS011;4492;48.736;9.092;2023-03-16T00:54:13;21.47;;;11.93;;
8913;SDS011;4492;48.736;9.092;2023-03-16T00:56:39;19.13;;;11.70;;
8913;SDS011;4492;48.736;9.092;2023-03-16T00:59:07;19.13;;;10.83;;
8913;SDS011;4492;48.736;9.092;2023-03-16T01:01:32;23.17;;;11.57;;
8913;SDS011;4492;48.736;9.092;2023-03-16T01:03:58;23.23;;;11.70;;
8913;SDS011;4492;48.736;9.092;2023-03-16T01:06:24;23.10;;;11.87;;
8913;SDS011;4492;48.736;9.092;2023-03-16T01:08:50;21.23;;;12.23;;
8913;SDS011;4492;48.736;9.092;2023-03-16T01:11:17;21.63;;;12.40;;
8913;SDS011;4492;48.736;9.092;2023-03-16T01:13:44;22.60;;;11.70;;
8913;SDS011;4492;48.736;9.092;2023-03-16T01:16:11;21.93;;;11.50;;
8913;SDS011;4492;48.736;9.092;2023-03-16T01:18:37;26.17;;;10.77;;
8913;SDS011;4492;48.736;9.092;2023-03-16T01:21:04;19.67;;;10.90;;
8913;SDS011;4492;48.736;9.092;2023-03-16T01:23:30;22.33;;;12.20;;
8913;SDS011;4492;48.736;9.092;2023-03-16T01:25:56;22.87;;;11.97;;
8913;SDS011;4492;48.736;9.092;2023-03-16T01:28:24;19.80;;;11.57;;
8913;SDS011;4492;48.736;9.092;2023-03-16T01:30:52;18.00;;;10.83;;
8913;SDS011;4492;48.736;9.092;2023-03-16T01:33:22;18.90;;;10.50;;
8913;SDS011;4492;48.736;9.092;2023-03-16T01:35:53;16.93;;;10.50;;
8913;SDS011;4492;48.736;9.092;2023-03-16T01:38:23;18.17;;;11.00;;
8913;SDS011;4492;48.736;9.092;2023-03-16T01:40:50;20.30;;;10.77;;
8913;SDS011;4492;48.736;9.092;2023-03-16T01:43:18;19.00;;;10.53;;
8913;SDS011;4492;48.736;9.092;2023-03-16T01:46:05;21.60;;;11.13;;
8913;SDS011;4492;48.736;9.092;2023-03-16T01:49:05;24.53;;;12.73;;
8913;SDS011;4492;48.736;9.092;2023-03-16T01:51:34;28.20;;;13.30;;
8913;SDS011;4492;48.736;9.092;2023-03-16T01:54:30;32.07;;;14.67;;
8913;SDS011;4492;48.736;9.092;2023-03-16T01:57:01;28.27;;;13.53;;
8913;SDS011;4492;48.736;9.092;2023-03-16T01:59:31;32.67;;;16.20;;
8913;SDS011;4492;48.736;9.092;2023-03-16T02:02:07;45.00;;;16.00;;
8913;SDS011;4492;48.736;9.092;2023-03-16T02:04:44;65.57;;;17.30;;
8913;SDS011;4492;48.736;9.092;2023-03-16T02:07:10;54.90;;;15.60;;
8913;SDS011;4492;48.736;9.092;2023-03-16T02:09:41;62.60;;;18.60;;
8913;SDS011;4492;48.736;9.092;2023-03-16T02:12:10;50.83;;;15.63;;
8913;SDS011;4492;48.736;9.092;2023-03-16T02:14:41;59.30;;;16.03;;
8913;SDS011;4492;48.736;9.092;2023-03-16T02:17:08;51.87;;;15.17;;
8913;SDS011;4492;48.736;9.092;2023-03-16T02:19:37;66.03;;;17.83;;
8913;SDS011;4492;48.736;9.092;2023-03-16T02:22:10;68.53;;;16.17;;
8913;SDS011;4492;48.736;9.092;2023-03-16T02:24:37;29.60;;;14.97;;
8913;SDS011;4492;48.736;9.092;2023-03-16T02:27:04;38.20;;;14.40;;
8913;SDS011;4492;48.736;9.092;2023-03-16T02:29:42;40.67;;;14.43;;
8913;SDS011;4492;48.736;9.092;2023-03-16T02:32:19;43.33;;;13.90;;
8913;SDS011;4492;48.736;9.092;2023-03-16T02:34:46;35.07;;;15.03;;
8913;SDS011;4492;48.736;9.092;2023-03-16T02:37:12;31.73;;;13.33;;
8913;SDS011;4492;48.736;9.092;2023-03-16T02:39:38;35.03;;;14.07;;
8913;SDS011;4492;48.736;9.092;2023-03-16T02:42:03;31.80;;;14.57;;
8913;SDS011;4492;48.736;9.092;2023-03-16T02:44:34;25.77;;;13.83;;
8913;SDS011;4492;48.736;9.092;2023-03-16T02:47:05;32.23;;;14.00;;
8913;SDS011;4492;48.736;9.092;2023-03-16T02:49:35;26.43;;;14.07;;
8913;SDS011;4492;48.736;9.092;2023-03-16T02:52:03;30.53;;;13.10;;
8913;SDS011;4492;48.736;9.092;2023-03-16T02:54:30;35.53;;;13.13;;
8913;SDS011;4492;48.736;9.092;2023-03-16T02:56:56;34.50;;;13.60;;
8913;SDS011;4492;48.736;9.092;2023-03-16T02:59:21;36.20;;;13.00;;
8913;SDS011;4492;48.736;9.092;2023-03-16T03:01:47;25.17;;;13.17;;
8913;SDS011;4492;48.736;9.092;2023-03-16T03:04:12;33.57;;;14.03;;
8913;SDS011;4492;48.736;9.092;2023-03-16T03:06:38;33.30;;;13.60;;
8913;SDS011;4492;48.736;9.092;2023-03-16T03:09:04;39.27;;;13.23;;
8913;SDS011;4492;48.736;9.092;2023-03-16T03:11:30;26.50;;;12.07;;
8913;SDS011;4492;48.736;9.092;2023-03-16T03:13:55;33.77;;;12.53;;
8913;SDS011;4492;48.736;9.092;2023-03-16T03:16:21;29.53;;;12.43;;
8913;SDS011;4492;48.736;9.092;2023-03-16T03:18:47;27.00;;;12.20;;
8913;SDS011;4492;48.736;9.092;2023-03-16T03:21:13;27.70;;;12.17;;
8913;SDS011;4492;48.736;9.092;2023-03-16T03:23:39;31.50;;;12.67;;
8913;SDS011;4492;48.736;9.092;2023-03-16T03:26:04;21.53;;;12.57;;
8913;SDS011;4492;48.736;9.092;2023-03-16T03:28:30;21.27;;;12.17;;
8913;SDS011;4492;48.736;9.092;2023-03-16T03:30:58;22.50;;;12.30;;
8913;SDS011;4492;48.736;9.092;2023-03-16T03:33:24;23.07;;;11.73;;
8913;SDS011;4492;48.736;9.092;2023-03-16T03:35:53;19.10;;;10.83;;
8913;SDS011;4492;48.736;9.092;2023-03-16T03:38:20;22.37;;;11.70;;
8913;SDS011;4492;48.736;9.092;2023-03-16T03:40:48;20.87;;;11.67;;
8913;SDS011;4492;48.736;9.092;2023-03-16T03:43:17;20.70;;;10.93;;
8913;SDS011;4492;48.736;9.092;2023-03-16T03:45:43;18.20;;;10.63;;
8913;SDS011;4492;48.736;9.092;2023-03-16T03:48:08;19.80;;;10.70;;
8913;SDS011;4492;48.736;9.092;2023-03-16T03:50:34;20.47;;;11.33;;
8913;SDS011;4492;48.736;9.092;2023-03-16T03:53:00;21.37;;;10.77;;
8913;SDS011;4492;48.736;9.092;2023-03-16T03:55:25;20.77;;;11.17;;
8913;SDS011;4492;48.736;9.092;2023-03-16T03:57:51;22.57;;;11.60;;
8913;SDS011;4492;48.736;9.092;2023-03-16T04:00:16;17.77;;;10.67;;
8913;SDS011;4492;48.736;9.092;2023-03-16T04:02:45;19.27;;;10.83;;
8913;SDS011;4492;48.736;9.092;2023-03-16T04:05:10;21.10;;;11.93;;
8913;SDS011;4492;48.736;9.092;2023-03-16T04:07:36;19.93;;;11.17;;
8913;SDS011;4492;48.736;9.092;2023-03-16T04:10:02;20.80;;;11.77;;
8913;SDS011;4492;48.736;9.092;2023-03-16T04:12:28;23.97;;;12.20;;
8913;SDS011;4492;48.736;9.092;2023-03-16T04:14:54;19.63;;;11.53;;
8913;SDS011;4492;48.736;9.092;2023-03-16T04:17:19;22.60;;;12.47;;
8913;SDS011;4492;48.736;9.092;2023-03-16T04:19:45;21.97;;;11.93;;
8913;SDS011;4492;48.736;9.092;2023-03-16T04:22:11;26.10;;;12.53;;
8913;SDS011;4492;48.736;9.092;2023-03-16T04:24:37;26.90;;;13.57;;
8913;SDS011;4492;48.736;9.092;2023-03-16T04:27:03;25.70;;;12.90;;
8913;SDS011;4492;48.736;9.092;2023-03-16T04:29:28;24.10;;;12.50;;
8913;SDS011;4492;48.736;9.092;2023-03-16T04:31:54;23.07;;;12.00;;
8913;SDS011;4492;48.736;9.092;2023-03-16T04:34:20;20.90;;;12.20;;
8913;SDS011;4492;48.736;9.092;2023-03-16T04:36:51;27.00;;;12.87;;
8913;SDS011;4492;48.736;9.092;2023-03-16T04:39:20;25.30;;;12.33;;
8913;SDS011;4492;48.736;9.092;2023-03-16T04:41:46;21.37;;;11.73;;
8913;SDS011;4492;48.736;9.092;2023-03-16T04:44:11;23.20;;;12.57;;
8913;SDS011;4492;48.736;9.092;2023-03-16T04:46:37;22.90;;;11.77;;
8913;SDS011;4492;48.736;9.092;2023-03-16T04:49:03;22.77;;;12.53;;
8913;SDS011;4492;48.736;9.092;2023-03-16T04:51:28;23.70;;;12.07;;
8913;SDS011;4492;48.736;9.092;2023-03-16T04:53:54;23.47;;;11.47;;
8913;SDS011;4492;48.736;9.092;2023-03-16T04:56:20;25.13;;;13.00;;
8913;SDS011;4492;48.736;9.092;2023-03-16T04:58:46;23.03;;;11.83;;
8913;SDS011;4492;48.736;9.092;2023-03-16T05:01:13;25.10;;;12.47;;
8913;SDS011;4492;48.736;9.092;2023-03-16T05:03:39;26.87;;;12.93;;
8913;SDS011;4492;48.736;9.092;2023-03-16T05:06:04;27.00;;;12.57;;
8913;SDS011;4492;48.736;9.092;2023-03-16T05:08:30;30.83;;;14.13;;
8913;SDS011;4492;48.736;9.092;2023-03-16T05:10:56;27.93;;;12.63;;
8913;SDS011;4492;48.736;9.092;2023-03-16T05:13:22;27.93;;;13.27;;
8913;SDS011;4492;48.736;9.092;2023-03-16T05:15:48;25.37;;;12.93;;
8913;SDS011;4492;48.736;9.092;2023-03-16T05:18:13;26.77;;;13.20;;
8913;SDS011;4492;48.736;9.092;2023-03-16T05:20:39;26.80;;;13.10;;
8913;SDS011;4492;48.736;9.092;2023-03-16T05:23:06;27.57;;;13.40;;
8913;SDS011;4492;48.736;9.092;2023-03-16T05:25:32;29.20;;;13.33;;
8913;SDS011;4492;48.736;9.092;2023-03-16T05:27:58;30.57;;;14.20;;
8913;SDS011;4492;48.736;9.092;2023-03-16T05:30:24;28.33;;;14.57;;
8913;SDS011;4492;48.736;9.092;2023-03-16T05:32:50;35.43;;;14.90;;
8913;SDS011;4492;48.736;9.092;2023-03-16T05:35:17;30.73;;;14.03;;
8913;SDS011;4492;48.736;9.092;2023-03-16T05:37:42;30.70;;;14.33;;
8913;SDS011;4492;48.736;9.092;2023-03-16T05:40:10;29.43;;;14.23;;
8913;SDS011;4492;48.736;9.092;2023-03-16T05:42:44;30.07;;;14.40;;
8913;SDS011;4492;48.736;9.092;2023-03-16T05:45:11;27.80;;;12.87;;
8913;SDS011;4492;48.736;9.092;2023-03-16T05:47:37;32.70;;;14.57;;
8913;SDS011;4492;48.736;9.092;2023-03-16T05:50:04;29.90;;;14.77;;
8913;SDS011;4492;48.736;9.092;2023-03-16T05:52:30;28.23;;;14.20;;
8913;SDS011;4492;48.736;9.092;2023-03-16T05:54:57;34.30;;;15.37;;
8913;SDS011;4492;48.736;9.092;2023-03-16T05:57:23;33.37;;;14.93;;
8913;SDS011;4492;48.736;9.092;2023-03-16T05:59:48;33.50;;;15.03;;
8913;SDS011;4492;48.736;9.092;2023-03-16T06:02:14;31.77;;;15.20;;
8913;SDS011;4492;48.736;9.092;2023-03-16T06:04:40;33.10;;;14.87;;
8913;SDS011;4492;48.736;9.092;2023-03-16T06:07:05;36.50;;;15.90;;
8913;SDS011;4492;48.736;9.092;2023-03-16T06:09:31;34.73;;;15.57;;
8913;SDS011;4492;48.736;9.092;2023-03-16T06:11:56;31.93;;;13.97;;
8913;SDS011;4492;48.736;9.092;2023-03-16T06:14:22;36.57;;;16.20;;
8913;SDS011;4492;48.736;9.092;2023-03-16T06:16:48;34.17;;;15.87;;
8913;SDS011;4492;48.736;9.092;2023-03-16T06:19:14;39.90;;;16.93;;
8913;SDS011;4492;48.736;9.092;2023-03-16T06:21:40;41.60;;;17.47;;
8913;SDS011;4492;48.736;9.092;2023-03-16T06:24:05;42.90;;;17.80;;
8913;SDS011;4492;48.736;9.092;2023-03-16T06:26:33;42.80;;;17.57;;
8913;SDS011;4492;48.736;9.092;2023-03-16T06:28:59;47.80;;;18.07;;
8913;SDS011;4492;48.736;9.092;2023-03-16T06:31:24;37.47;;;16.83;;
8913;SDS011;4492;48.736;9.092;2023-03-16T06:33:50;36.90;;;16.57;;
8913;SDS011;4492;48.736;9.092;2023-03-16T06:36:15;41.07;;;16.73;;
8913;SDS011;4492;48.736;9.092;2023-03-16T06:38:41;39.20;;;17.03;;
8913;SDS011;4492;48.736;9.092;2023-03-16T06:41:07;40.20;;;16.67;;
8913;SDS011;4492;48.736;9.092;2023-03-16T06:43:32;41.47;;;17.50;;
8913;SDS011;4492;48.736;9.092;2023-03-16T06:45:58;36.67;;;16.87;;
8913;SDS011;4492;48.736;9.092;2023-03-16T06:48:23;42.53;;;17.47;;
8913;SDS011;4492;48.736;9.092;2023-03-16T06:50:49;39.77;;;16.90;;
8913;SDS011;4492;48.736;9.092;2023-03-16T06:53:15;36.37;;;16.27;;
8913;SDS011;4492;48.736;9.092;2023-03-16T06:55:40;42.10;;;17.07;;
8913;SDS011;4492;48.736;9.092;2023-03-16T06:58:06;38.50;;;17.00;;
8913;SDS011;4492;48.736;9.092;2023-03-16T07:00:32;39.53;;;16.60;;
8913;SDS011;4492;48.736;9.092;2023-03-16T07:02:58;37.83;;;15.70;;
8913;SDS011;4492;48.736;9.092;2023-03-16T07:05:24;38.97;;;16.17;;
8913;SDS011;4492;48.736;9.092;2023-03-16T07:07:50;40.67;;;16.77;;
8913;SDS011;4492;48.736;9.092;2023-03-16T07:10:16;41.07;;;16.67;;
8913;SDS011;4492;48.736;9.092;2023-03-16T07:12:42;33.67;;;16.10;;
8913;SDS011;4492;48.736;9.092;2023-03-16T07:15:08;40.63;;;16.43;;
8913;SDS011;4492;48.736;9.092;2023-03-16T07:17:34;37.57;;;16.60;;
8913;SDS011;4492;48.736;9.092;2023-03-16T07:20:00;37.53;;;16.83;;
8913;SDS011;4492;48.736;9.092;2023-03-16T07:22:29;34.10;;;15.87;;
8913;SDS011;4492;48.736;9.092;2023-03-16T07:24:56;40.63;;;16.23;;
8913;SDS011;4492;48.736;9.092;2023-03-16T07:27:22;31.63;;;16.07;;
8913;SDS011;4492;48.736;9.092;2023-03-16T07:29:49;38.63;;;17.47;;
8913;SDS011;4492;48.736;9.092;2023-03-16T07:32:16;37.43;;;17.67;;
8913;SDS011;4492;48.736;9.092;2023-03-16T07:34:41;32.90;;;15.73;;
8913;SDS011;4492;48.736;9.092;2023-03-16T07:37:07;39.00;;;16.73;;
8913;SDS011;4492;48.736;9.092;2023-03-16T07:39:34;34.67;;;16.17;;
8913;SDS011;4492;48.736;9.092;2023-03-16T07:42:00;35.73;;;17.07;;
8913;SDS011;4492;48.736;9.092;2023-03-16T07:44:26;34.50;;;16.27;;
8913;SDS011;4492;48.736;9.092;2023-03-16T07:46:52;36.30;;;16.90;;
8913;SDS011;4492;48.736;9.092;2023-03-16T07:49:18;35.17;;;16.43;;
8913;SDS011;4492;48.736;9.092;2023-03-16T07:51:43;34.10;;;16.00;;
8913;SDS011;4492;48.736;9.092;2023-03-16T07:54:09;30.60;;;16.10;;
8913;SDS011;4492;48.736;9.092;2023-03-16T07:56:35;32.17;;;16.03;;
8913;SDS011;4492;48.736;9.092;2023-03-16T07:59:00;30.60;;;15.40;;
8913;SDS011;4492;48.736;9.092;2023-03-16T08:01:26;29.37;;;15.13;;
8913;SDS011;4492;48.736;9.092;2023-03-16T08:03:52;24.77;;;14.47;;
8913;SDS011;4492;48.736;9.092;2023-03-16T08:06:19;27.97;;;15.40;;
8913;SDS011;4492;48.736;9.092;2023-03-16T08:08:45;23.77;;;13.70;;
8913;SDS011;4492;48.736;9.092;2023-03-16T08:11:11;23.97;;;12.93;;
8913;SDS011;4492;48.736;9.092;2023-03-16T08:13:36;23.30;;;12.47;;
8913;SDS011;4492;48.736;9.092;2023-03-16T08:16:02;18.73;;;10.93;;
8913;SDS011;4492;48.736;9.092;2023-03-16T08:18:29;15.47;;;9.70;;
8913;SDS011;4492;48.736;9.092;2023-03-16T08:20:55;16.87;;;9.37;;
8913;SDS011;4492;48.736;9.092;2023-03-16T08:23:22;16.03;;;8.53;;
8913;SDS011;4492;48.736;9.092;2023-03-16T08:25:52;13.93;;;7.70;;
8913;SDS011;4492;48.736;9.092;2023-03-16T08:28:19;9.07;;;6.43;;
8913;SDS011;4492;48.736;9.092;2023-03-16T08:30:49;10.47;;;6.80;;
8913;SDS011;4492;48.736;9.092;2023-03-16T08:33:16;10.63;;;6.60;;
8913;SDS011;4492;48.736;9.092;2023-03-16T08:35:44;11.43;;;6.10;;
8913;SDS011;4492;48.736;9.092;2023-03-16T08:38:11;8.87;;;6.10;;
8913;SDS011;4492;48.736;9.092;2023-03-16T08:40:38;7.77;;;5.73;;
8913;SDS011;4492;48.736;9.092;2023-03-16T08:43:14;7.23;;;5.40;;
8913;SDS011;4492;48.736;9.092;2023-03-16T08:45:41;8.53;;;5.47;;
8913;SDS011;4492;48.736;9.092;2023-03-16T08:48:09;9.17;;;5.10;;
8913;SDS011;4492;48.736;9.092;2023-03-16T08:50:38;10.57;;;5.43;;
8913;SDS011;4492;48.736;9.092;2023-03-16T08:53:05;8.23;;;5.27;;
8913;SDS011;4492;48.736;9.092;2023-03-16T08:55:31;10.43;;;5.63;;
8913;SDS011;4492;48.736;9.092;2023-03-16T08:57:56;8.33;;;4.90;;
8913;SDS011;4492;48.736;9.092;2023-03-16T09:00:22;7.70;;;4.60;;
8913;SDS011;4492;48.736;9.092;2023-03-16T09:02:48;10.63;;;4.83;;
8913;SDS011;4492;48.736;9.092;2023-03-16T09:05:14;6.67;;;4.80;;
8913;SDS011;4492;48.736;9.092;2023-03-16T09:07:40;5.43;;;4.10;;
8913;SDS011;4492;48.736;9.092;2023-03-16T09:10:06;8.33;;;4.87;;
8913;SDS011;4492;48.736;9.092;2023-03-16T09:12:34;11.83;;;5.20;;
8913;SDS011;4492;48.736;9.092;2023-03-16T09:15:01;8.83;;;6.57;;
8913;SDS011;4492;48.736;9.092;2023-03-16T09:17:26;10.50;;;6.17;;
8913;SDS011;4492;48.736;9.092;2023-03-16T09:19:52;10.13;;;5.87;;
8913;SDS011;4492;48.736;9.092;2023-03-16T09:22:19;7.60;;;5.53;;
8913;SDS011;4492;48.736;9.092;2023-03-16T09:24:45;6.57;;;5.20;;
8913;SDS011;4492;48.736;9.092;2023-03-16T09:27:10;8.50;;;6.00;;
8913;SDS011;4492;48.736;9.092;2023-03-16T09:29:36;12.10;;;5.90;;
8913;SDS011;4492;48.736;9.092;2023-03-16T09:32:01;10.17;;;5.80;;
8913;SDS011;4492;48.736;9.092;2023-03-16T09:34:28;9.80;;;5.63;;
8913;SDS011;4492;48.736;9.092;2023-03-16T09:36:53;9.53;;;5.40;;
8913;SDS011;4492;48.736;9.092;2023-03-16T09:39:19;7.70;;;5.70;;
8913;SDS011;4492;48.736;9.092;2023-03-16T09:41:54;8.67;;;4.73;;
8913;SDS011;4492;48.736;9.092;2023-03-16T09:47:06;9.23;;;4.70;;
8913;SDS011;4492;48.736;9.092;2023-03-16T09:49:36;9.47;;;6.03;;
8913;SDS011;4492;48.736;9.092;2023-03-16T09:54:48;7.70;;;4.70;;
8913;SDS011;4492;48.736;9.092;2023-03-16T09:59:51;7.73;;;4.80;;
8913;SDS011;4492;48.736;9.092;2023-03-16T10:02:26;4.50;;;4.10;;
8913;SDS011;4492;48.736;9.092;2023-03-16T10:13:06;7.60;;;5.10;;
8913;SDS011;4492;48.736;9.092;2023-03-16T10:15:45;6.00;;;4.40;;
8913;SDS011;4492;48.736;9.092;2023-03-16T10:18:16;6.90;;;4.23;;
8913;SDS011;4492;48.736;9.092;2023-03-16T10:20:49;5.90;;;4.23;;
8913;SDS011;4492;48.736;9.092;2023-03-16T10:23:19;5.80;;;4.43;;
8913;SDS011;4492;48.736;9.092;2023-03-16T10:25:49;7.73;;;4.30;;
8913;SDS011;4492;48.736;9.092;2023-03-16T10:28:20;6.20;;;4.10;;
8913;SDS011;4492;48.736;9.092;2023-03-16T10:30:48;7.73;;;4.07;;
8913;SDS011;4492;48.736;9.092;2023-03-16T10:33:23;5.40;;;4.03;;
8913;SDS011;4492;48.736;9.092;2023-03-16T10:41:02;6.17;;;3.87;;
8913;SDS011;4492;48.736;9.092;2023-03-16T10:43:30;10.97;;;5.03;;
8913;SDS011;4492;48.736;9.092;2023-03-16T10:45:57;4.70;;;4.10;;
8913;SDS011;4492;48.736;9.092;2023-03-16T10:48:26;5.03;;;4.30;;
8913;SDS011;4492;48.736;9.092;2023-03-16T10:50:55;4.50;;;4.07;;
8913;SDS011;4492;48.736;9.092;2023-03-16T10:55:49;4.87;;;3.33;;
8913;SDS011;4492;48.736;9.092;2023-03-16T10:58:24;5.33;;;3.30;;
8913;SDS011;4492;48.736;9.092;2023-03-16T11:00:53;4.57;;;4.03;;
8913;SDS011;4492;48.736;9.092;2023-03-16T11:03:21;4.17;;;3.70;;
8913;SDS011;4492;48.736;9.092;2023-03-16T11:06:03;5.50;;;3.60;;
8913;SDS011;4492;48.736;9.092;2023-03-16T11:08:32;3.50;;;3.20;;
8913;SDS011;4492;48.736;9.092;2023-03-16T11:10:59;4.53;;;3.30;;
8913;SDS011;4492;48.736;9.092;2023-03-16T11:13:33;5.67;;;3.20;;
8913;SDS011;4492;48.736;9.092;2023-03-16T11:18:46;3.90;;;3.50;;
8913;SDS011;4492;48.736;9.092;2023-03-16T11:21:21;6.03;;;3.30;;
8913;SDS011;4492;48.736;9.092;2023-03-16T11:24:14;4.83;;;3.07;;
8913;SDS011;4492;48.736;9.092;2023-03-16T11:26:56;4.07;;;2.90;;
8913;SDS011;4492;48.736;9.092;2023-03-16T11:32:32;7.40;;;3.17;;
8913;SDS011;4492;48.736;9.092;2023-03-16T11:35:19;3.93;;;2.83;;
8913;SDS011;4492;48.736;9.092;2023-03-16T11:37:58;3.77;;;2.67;;
8913;SDS011;4492;48.736;9.092;2023-03-16T11:40:45;5.23;;;3.30;;
8913;SDS011;4492;48.736;9.092;2023-03-16T11:48:35;4.23;;;2.67;;
8913;SDS011;4492;48.736;9.092;2023-03-16T11:56:47;3.03;;;2.47;;
8913;SDS011;4492;48.736;9.092;2023-03-16T12:02:16;3.90;;;2.80;;
8913;SDS011;4492;48.736;9.092;2023-03-16T12:15:53;2.77;;;2.20;;
8913;SDS011;4492;48.736;9.092;2023-03-16T12:18:46;4.53;;;2.30;;
8913;SDS011;4492;48.736;9.092;2023-03-16T12:21:32;3.57;;;2.43;;
8913;SDS011;4492;48.736;9.092;2023-03-16T12:24:03;2.70;;;2.47;;
8913;SDS011;4492;48.736;9.092;2023-03-16T12:26:34;2.50;;;2.20;;
8913;SDS011;4492;48.736;9.092;2023-03-16T12:31:48;2.33;;;2.10;;
8913;SDS011;4492;48.736;9.092;2023-03-16T12:34:25;3.67;;;2.27;;
8913;SDS011;4492;48.736;9.092;2023-03-16T12:37:09;3.60;;;2.10;;
8913;SDS011;4492;48.736;9.092;2023-03-16T12:42:58;2.37;;;2.13;;
8913;SDS011;4492;48.736;9.092;2023-03-16T12:50:52;2.73;;;2.50;;
8913;SDS011;4492;48.736;9.092;2023-03-16T12:57:03;2.97;;;1.87;;
8913;SDS011;4492;48.736;9.092;2023-03-16T12:59:14;1.80;;;1.70;;
8913;SDS011;4492;48.736;9.092;2023-03-16T13:01:44;3.37;;;1.67;;
8913;SDS011;4492;48.736;9.092;2023-03-16T13:04:17;2.00;;;1.90;;
8913;SDS011;4492;48.736;9.092;2023-03-16T13:06:46;2.73;;;2.13;;
8913;SDS011;4492;48.736;9.092;2023-03-16T13:09:26;3.17;;;2.03;;
8913;SDS011;4492;48.736;9.092;2023-03-16T13:11:55;2.10;;;1.80;;
8913;SDS011;4492;48.736;9.092;2023-03-16T13:14:41;2.63;;;1.97;;
8913;SDS011;4492;48.736;9.092;2023-03-16T13:17:27;4.43;;;1.70;;
8913;SDS011;4492;48.736;9.092;2023-03-16T13:20:06;2.93;;;1.80;;
8913;SDS011;4492;48.736;9.092;2023-03-16T13:25:43;2.47;;;1.80;;
8913;SDS011;4492;48.736;9.092;2023-03-16T13:28:19;2.10;;;1.50;;
8913;SDS011;4492;48.736;9.092;2023-03-16T13:30:52;2.13;;;1.67;;
8913;SDS011;4492;48.736;9.092;2023-03-16T13:33:18;3.70;;;1.70;;
8913;SDS011;4492;48.736;9.092;2023-03-16T13:35:46;2.37;;;1.43;;
8913;SDS011;4492;48.736;9.092;2023-03-16T13:38:15;2.47;;;1.73;;
8913;SDS011;4492;48.736;9.092;2023-03-16T13:40:46;1.40;;;1.30;;
8913;SDS011;4492;48.736;9.092;2023-03-16T13:43:18;3.37;;;1.90;;
8913;SDS011;4492;48.736;9.092;2023-03-16T13:45:46;1.37;;;1.27;;
8913;SDS011;4492;48.736;9.092;2023-03-16T13:48:13;1.80;;;1.60;;
8913;SDS011;4492;48.736;9.092;2023-03-16T13:50:40;3.33;;;1.80;;
8913;SDS011;4492;48.736;9.092;2023-03-16T13:53:14;2.07;;;1.87;;
8913;SDS011;4492;48.736;9.092;2023-03-16T13:55:43;4.30;;;1.70;;
8913;SDS011;4492;48.736;9.092;2023-03-16T13:58:13;3.07;;;2.37;;
8913;SDS011;4492;48.736;9.092;2023-03-16T14:00:46;4.10;;;2.33;;
8913;SDS011;4492;48.736;9.092;2023-03-16T14:03:16;2.30;;;2.00;;
8913;SDS011;4492;48.736;9.092;2023-03-16T14:05:44;5.10;;;1.70;;
8913;SDS011;4492;48.736;9.092;2023-03-16T14:08:17;2.07;;;1.43;;
8913;SDS011;4492;48.736;9.092;2023-03-16T14:10:45;2.20;;;1.70;;
8913;SDS011;4492;48.736;9.092;2023-03-16T14:15:54;5.83;;;1.83;;
8913;SDS011;4492;48.736;9.092;2023-03-16T14:18:22;3.90;;;1.97;;
8913;SDS011;4492;48.736;9.092;2023-03-16T14:20:52;1.90;;;1.70;;
8913;SDS011;4492;48.736;9.092;2023-03-16T14:23:20;4.47;;;1.90;;
8913;SDS011;4492;48.736;9.092;2023-03-16T14:25:48;2.10;;;1.60;;
8913;SDS011;4492;48.736;9.092;2023-03-16T14:28:15;2.30;;;1.60;;
8913;SDS011;4492;48.736;9.092;2023-03-16T14:30:50;1.60;;;1.50;;
8913;SDS011;4492;48.736;9.092;2023-03-16T14:33:30;2.07;;;1.37;;
8913;SDS011;4492;48.736;9.092;2023-03-16T14:35:58;1.83;;;1.53;;
8913;SDS011;4492;48.736;9.092;2023-03-16T14:38:32;2.70;;;1.70;;
8913;SDS011;4492;48.736;9.092;2023-03-16T14:41:03;3.27;;;1.57;;
8913;SDS011;4492;48.736;9.092;2023-03-16T14:43:34;2.03;;;1.37;;
8913;SDS011;4492;48.736;9.092;2023-03-16T14:46:05;2.30;;;1.63;;
8913;SDS011;4492;48.736;9.092;2023-03-16T14:48:32;2.10;;;1.33;;
8913;SDS011;4492;48.736;9.092;2023-03-16T14:50:59;2.17;;;1.80;;
8913;SDS011;4492;48.736;9.092;2023-03-16T14:53:27;4.47;;;1.60;;
8913;SDS011;4492;48.736;9.092;2023-03-16T14:55:53;1.50;;;1.40;;
8913;SDS011;4492;48.736;9.092;2023-03-16T14:58:20;1.37;;;1.27;;
8913;SDS011;4492;48.736;9.092;2023-03-16T15:00:46;3.03;;;1.50;;
8913;SDS011;4492;48.736;9.092;2023-03-16T15:03:13;1.93;;;1.40;;
8913;SDS011;4492;48.736;9.092;2023-03-16T15:05:41;2.20;;;2.00;;
8913;SDS011;4492;48.736;9.092;2023-03-16T15:08:24;1.30;;;1.20;;
8913;SDS011;4492;48.736;9.092;2023-03-16T15:10:56;2.40;;;1.60;;
8913;SDS011;4492;48.736;9.092;2023-03-16T15:13:24;1.97;;;1.17;;
8913;SDS011;4492;48.736;9.092;2023-03-16T15:16:06;6.03;;;3.43;;
8913;SDS011;4492;48.736;9.092;2023-03-16T15:18:36;3.63;;;2.10;;
8913;SDS011;4492;48.736;9.092;2023-03-16T15:21:03;2.83;;;2.03;;
8913;SDS011;4492;48.736;9.092;2023-03-16T15:23:38;9.60;;;7.70;;
8913;SDS011;4492;48.736;9.092;2023-03-16T15:26:07;3.00;;;1.30;;
8913;SDS011;4492;48.736;9.092;2023-03-16T15:28:36;14.00;;;8.73;;
8913;SDS011;4492;48.736;9.092;2023-03-16T15:31:02;3.10;;;2.80;;
8913;SDS011;4492;48.736;9.092;2023-03-16T15:33:29;2.03;;;1.80;;
8913;SDS011;4492;48.736;9.092;2023-03-16T15:35:56;2.27;;;1.60;;
8913;SDS011;4492;48.736;9.092;2023-03-16T15:38:24;2.60;;;2.40;;
8913;SDS011;4492;48.736;9.092;2023-03-16T15:40:56;24.77;;;11.90;;
8913;SDS011;4492;48.736;9.092;2023-03-16T15:43:23;11.23;;;5.10;;
8913;SDS011;4492;48.736;9.092;2023-03-16T15:45:51;2.57;;;1.83;;
8913;SDS011;4492;48.736;9.092;2023-03-16T15:48:18;1.67;;;1.57;;
8913;SDS011;4492;48.736;9.092;2023-03-16T15:50:51;3.23;;;1.90;;
8913;SDS011;4492;48.736;9.092;2023-03-16T15:53:21;2.23;;;1.70;;
8913;SDS011;4492;48.736;9.092;2023-03-16T15:55:51;4.47;;;2.40;;
8913;SDS011;4492;48.736;9.092;2023-03-16T15:58:23;2.10;;;1.70;;
8913;SDS011;4492;48.736;9.092;2023-03-16T16:00:51;6.97;;;4.07;;
8913;SDS011;4492;48.736;9.092;2023-03-16T16:03:19;3.00;;;2.60;;
8913;SDS011;4492;48.736;9.092;2023-03-16T16:05:45;2.73;;;1.80;;
8913;SDS011;4492;48.736;9.092;2023-03-16T16:08:11;2.97;;;2.27;;
8913;SDS011;4492;48.736;9.092;2023-03-16T16:10:38;2.00;;;1.80;;
8913;SDS011;4492;48.736;9.092;2023-03-16T16:13:05;2.07;;;1.60;;
8913;SDS011;4492;48.736;9.092;2023-03-16T16:15:37;2.00;;;1.40;;
8913;SDS011;4492;48.736;9.092;2023-03-16T16:18:12;1.70;;;1.50;;
8913;SDS011;4492;48.736;9.092;2023-03-16T16:20:54;2.70;;;1.50;;
8913;SDS011;4492;48.736;9.092;2023-03-16T16:23:24;2.43;;;1.43;;
8913;SDS011;4492;48.736;9.092;2023-03-16T16:25:54;3.73;;;1.80;;